createdAt,value
2022-12-23T00:01:26.551Z,82.13
2022-12-23T00:03:58.566Z,87.63
2022-12-23T00:06:27.141Z,82.50
2022-12-23T00:08:58.600Z,84.30
2022-12-23T00:11:29.592Z,77.43
2022-12-23T00:14:21.188Z,82.03
2022-12-23T00:16:50.648Z,80.97
2022-12-23T00:19:20.453Z,77.97
2022-12-23T00:21:49.119Z,85.20
2022-12-23T00:24:17.318Z,79.10
2022-12-23T00:26:46.861Z,80.63
2022-12-23T00:29:15.310Z,83.57
2022-12-23T00:31:43.747Z,94.67
2022-12-23T00:34:13.388Z,100.13
2022-12-23T00:36:41.902Z,88.30
2022-12-23T00:39:27.450Z,101.43
2022-12-23T00:42:14.641Z,91.03
2022-12-23T00:44:43.059Z,92.00
2022-12-23T00:47:32.081Z,92.40
2022-12-23T00:49:59.495Z,100.53
2022-12-23T00:52:28.296Z,97.33
2022-12-23T00:54:56.676Z,96.43
2022-12-23T00:57:26.239Z,100.83
2022-12-23T00:59:54.394Z,90.83
2022-12-23T01:02:40.605Z,96.07
2022-12-23T01:05:37.586Z,95.80
2022-12-23T01:08:06.328Z,92.27
2022-12-23T01:10:36.190Z,80.53
2022-12-23T01:13:06.280Z,86.17
2022-12-23T01:15:34.902Z,95.43
2022-12-23T01:18:03.335Z,93.80
2022-12-23T01:20:31.740Z,96.97
2022-12-23T01:23:00.166Z,101.97
2022-12-23T01:25:28.591Z,94.03
2022-12-23T01:27:57.009Z,91.17
2022-12-23T01:30:26.617Z,100.27
2022-12-23T01:32:55.020Z,103.07
2022-12-23T01:35:23.435Z,90.07
2022-12-23T01:37:51.923Z,91.13
2022-12-23T01:40:20.211Z,106.70
2022-12-23T01:42:47.764Z,103.47
2022-12-23T01:45:18.355Z,94.97
2022-12-23T01:47:51.544Z,100.77
2022-12-23T01:50:23.687Z,95.43
2022-12-23T01:53:00.475Z,103.17
2022-12-23T01:55:38.143Z,95.70
2022-12-23T01:58:11.355Z,91.03
2022-12-23T02:00:58.539Z,83.30
2022-12-23T02:03:43.831Z,90.23
2022-12-23T02:06:34.143Z,90.77
2022-12-23T02:09:20.757Z,85.67
2022-12-23T02:12:27.427Z,92.70
2022-12-23T02:15:27.347Z,90.03
2022-12-23T02:18:07.361Z,90.30
2022-12-23T02:21:12.021Z,94.80
2022-12-23T02:24:21.218Z,84.77
2022-12-23T02:27:11.653Z,91.07
2022-12-23T02:30:14.557Z,84.13
2022-12-23T02:32:56.692Z,93.13
2022-12-23T02:35:31.583Z,88.20
2022-12-23T02:38:09.857Z,73.00
2022-12-23T02:40:44.786Z,81.37
2022-12-23T02:43:18.622Z,90.80
2022-12-23T02:45:55.086Z,73.30
2022-12-23T02:48:32.844Z,78.47
2022-12-23T02:51:01.482Z,80.87
2022-12-23T02:53:34.877Z,82.67
2022-12-23T02:56:04.579Z,77.37
2022-12-23T02:58:37.339Z,65.43
2022-12-23T03:01:07.221Z,77.20
2022-12-23T03:03:39.162Z,75.77
2022-12-23T03:06:18.331Z,75.13
2022-12-23T03:08:47.260Z,78.87
2022-12-23T03:11:17.006Z,84.83
2022-12-23T03:14:10.908Z,66.10
2022-12-23T03:16:49.011Z,68.13
2022-12-23T03:19:27.067Z,71.37
2022-12-23T03:22:06.136Z,77.70
2022-12-23T03:24:56.879Z,74.73
2022-12-23T03:27:29.074Z,68.17
2022-12-23T03:30:01.873Z,75.13
2022-12-23T03:32:34.768Z,65.47
2022-12-23T03:35:08.647Z,64.67
2022-12-23T03:37:39.942Z,60.10
2022-12-23T03:40:13.134Z,65.57
2022-12-23T03:42:46.629Z,73.77
2022-12-23T03:45:38.125Z,61.00
2022-12-23T03:48:09.077Z,55.13
2022-12-23T03:50:41.592Z,61.03
2022-12-23T03:53:13.148Z,64.10
2022-12-23T03:55:48.025Z,53.40
2022-12-23T03:58:23.589Z,61.80
2022-12-23T04:00:59.369Z,53.10
2022-12-23T04:03:36.928Z,55.77
2022-12-23T04:06:09.276Z,55.70
2022-12-23T04:08:39.943Z,49.33
2022-12-23T04:11:08.503Z,54.43
2022-12-23T04:13:36.912Z,49.57
2022-12-23T04:16:05.906Z,68.30
2022-12-23T04:18:34.607Z,58.77
2022-12-23T04:21:03.026Z,51.90
2022-12-23T04:23:32.590Z,54.73
2022-12-23T04:26:00.737Z,51.37
2022-12-23T04:28:29.134Z,57.47
2022-12-23T04:30:57.315Z,52.27
2022-12-23T04:33:25.820Z,47.40
2022-12-23T04:35:53.978Z,44.93
2022-12-23T04:38:22.413Z,54.07
2022-12-23T04:40:51.986Z,44.23
2022-12-23T04:43:20.125Z,49.43
2022-12-23T04:45:51.962Z,45.70
2022-12-23T04:48:20.727Z,43.20
2022-12-23T04:50:48.927Z,41.17
2022-12-23T04:53:17.239Z,41.47
2022-12-23T04:55:45.508Z,38.87
2022-12-23T04:58:15.120Z,37.77
2022-12-23T05:00:43.369Z,36.33
2022-12-23T05:03:11.708Z,38.33
2022-12-23T05:05:44.589Z,42.50
2022-12-23T05:08:13.062Z,37.07
2022-12-23T05:10:41.517Z,42.33
2022-12-23T05:13:09.647Z,38.47
2022-12-23T05:15:39.269Z,44.40
2022-12-23T05:18:07.720Z,43.40
2022-12-23T05:20:36.157Z,46.10
2022-12-23T05:23:04.356Z,41.03
2022-12-23T05:25:34.152Z,42.77
2022-12-23T05:28:02.537Z,42.37
2022-12-23T05:30:30.927Z,51.37
2022-12-23T05:33:00.537Z,43.10
2022-12-23T05:35:29.508Z,44.13
2022-12-23T05:37:58.448Z,44.10
2022-12-23T05:40:27.137Z,43.70
2022-12-23T05:42:59.457Z,43.13
2022-12-23T05:45:27.957Z,42.47
2022-12-23T05:47:56.402Z,37.80
2022-12-23T05:50:26.025Z,43.80
2022-12-23T05:52:55.898Z,40.10
2022-12-23T05:55:24.451Z,39.43
2022-12-23T05:57:53.167Z,40.10
2022-12-23T06:00:22.204Z,40.50
2022-12-23T06:02:53.982Z,43.30
2022-12-23T06:05:23.120Z,42.37
2022-12-23T06:07:52.711Z,42.80
2022-12-23T06:10:21.341Z,43.37
2022-12-23T06:12:49.756Z,39.87
2022-12-23T06:15:18.303Z,37.23
2022-12-23T06:17:46.731Z,42.60
2022-12-23T06:20:20.378Z,45.50
2022-12-23T06:22:49.308Z,47.67
2022-12-23T06:25:18.841Z,50.10
2022-12-23T06:27:47.303Z,46.30
2022-12-23T06:30:16.099Z,45.80
2022-12-23T06:32:44.535Z,50.97
2022-12-23T06:35:13.469Z,50.13
2022-12-23T06:37:41.886Z,50.73
2022-12-23T06:40:11.369Z,49.20
2022-12-23T06:42:40.928Z,50.60
2022-12-23T06:45:10.449Z,54.37
2022-12-23T06:47:38.842Z,52.50
2022-12-23T06:50:09.060Z,55.67
2022-12-23T06:52:37.451Z,53.97
2022-12-23T06:55:06.515Z,64.57
2022-12-23T06:57:35.009Z,58.80
2022-12-23T07:00:05.169Z,60.10
2022-12-23T07:02:33.723Z,66.77
2022-12-23T07:05:02.414Z,67.27
2022-12-23T07:07:32.253Z,60.80
2022-12-23T07:10:00.711Z,63.93
2022-12-23T07:12:29.162Z,59.37
2022-12-23T07:14:57.565Z,72.00
2022-12-23T07:17:27.142Z,68.57
2022-12-23T07:19:55.572Z,68.03
2022-12-23T07:22:24.001Z,66.03
2022-12-23T07:24:52.461Z,67.07
2022-12-23T07:27:20.665Z,58.93
2022-12-23T07:29:49.102Z,67.27
2022-12-23T07:32:17.521Z,66.47
2022-12-23T07:34:47.039Z,60.97
2022-12-23T07:37:15.447Z,67.60
2022-12-23T07:39:43.860Z,64.70
2022-12-23T07:45:01.797Z,66.73
2022-12-23T07:47:30.233Z,66.70
2022-12-23T07:49:59.836Z,65.30
2022-12-23T07:52:28.296Z,62.63
2022-12-23T07:54:56.720Z,60.00
2022-12-23T07:57:25.437Z,69.60
2022-12-23T07:59:53.929Z,69.97
2022-12-23T08:02:25.263Z,63.17
2022-12-23T08:04:53.991Z,60.03
2022-12-23T08:07:23.582Z,62.83
2022-12-23T08:09:51.765Z,58.53
2022-12-23T08:12:19.936Z,67.10
2022-12-23T08:14:48.935Z,60.07
2022-12-23T08:17:17.202Z,67.13
2022-12-23T08:19:45.635Z,58.23
2022-12-23T08:22:13.827Z,62.47
2022-12-23T08:24:43.394Z,61.13
2022-12-23T08:27:11.945Z,63.33
2022-12-23T08:29:41.211Z,57.40
2022-12-23T08:32:09.716Z,58.50
2022-12-23T08:34:38.035Z,58.87
2022-12-23T08:37:06.472Z,58.23
2022-12-23T08:39:34.917Z,56.97
2022-12-23T08:42:04.541Z,64.63
2022-12-23T08:44:33.051Z,59.60
2022-12-23T08:47:01.465Z,56.33
2022-12-23T08:49:29.767Z,62.77
2022-12-23T08:51:58.258Z,56.83
2022-12-23T08:54:27.112Z,65.63
2022-12-23T08:56:55.289Z,57.53
2022-12-23T08:59:24.860Z,58.30
2022-12-23T09:01:53.453Z,51.97
2022-12-23T09:04:21.975Z,53.67
2022-12-23T09:06:50.418Z,54.63
2022-12-23T09:09:18.836Z,55.23
2022-12-23T09:11:47.246Z,52.33
2022-12-23T09:14:15.733Z,59.57
2022-12-23T09:16:45.323Z,54.23
2022-12-23T09:19:13.727Z,51.67
2022-12-23T09:21:42.131Z,59.43
2022-12-23T09:24:10.714Z,58.27
2022-12-23T09:26:39.113Z,49.30
2022-12-23T09:29:07.567Z,51.73
2022-12-23T09:31:37.741Z,55.00
2022-12-23T09:34:07.589Z,52.60
2022-12-23T09:36:36.284Z,52.13
2022-12-23T09:39:04.954Z,48.50
2022-12-23T09:41:53.433Z,51.23
2022-12-23T09:44:44.318Z,53.30
2022-12-23T09:47:17.031Z,53.00
2022-12-23T09:49:51.322Z,48.67
2022-12-23T09:52:26.213Z,44.20
2022-12-23T09:54:56.183Z,44.73
2022-12-23T09:57:31.307Z,46.57
2022-12-23T10:00:06.964Z,48.87
2022-12-23T10:02:48.185Z,47.10
2022-12-23T10:05:29.441Z,50.67
2022-12-23T10:08:02.902Z,51.40
2022-12-23T10:10:36.244Z,50.27
2022-12-23T10:13:07.244Z,53.43
2022-12-23T10:15:39.995Z,47.40
2022-12-23T10:18:16.861Z,49.50
2022-12-23T10:20:52.027Z,52.90
2022-12-23T10:23:28.261Z,50.50
2022-12-23T10:25:56.553Z,52.73
2022-12-23T10:28:29.944Z,54.73
2022-12-23T10:31:31.065Z,56.90
2022-12-23T10:34:01.526Z,53.67
2022-12-23T10:36:40.637Z,55.90
2022-12-23T10:39:16.152Z,55.63
2022-12-23T10:41:53.149Z,55.03
2022-12-23T10:44:40.199Z,49.27
2022-12-23T10:47:16.897Z,61.10
2022-12-23T10:49:59.261Z,50.90
2022-12-23T10:52:32.164Z,53.97
2022-12-23T10:55:00.317Z,54.73
2022-12-23T10:57:30.555Z,59.93
2022-12-23T10:59:59.058Z,57.27
2022-12-23T11:02:45.315Z,55.20
2022-12-23T11:05:16.935Z,62.70
2022-12-23T11:07:47.991Z,60.93
2022-12-23T11:10:20.362Z,63.40
2022-12-23T11:12:50.969Z,62.93
2022-12-23T11:15:31.150Z,65.17
2022-12-23T11:18:01.019Z,58.33
2022-12-23T11:20:29.345Z,65.47
2022-12-23T11:23:02.035Z,64.33
2022-12-23T11:25:36.816Z,55.67
2022-12-23T11:28:08.818Z,63.47
2022-12-23T11:30:40.399Z,64.20
2022-12-23T11:33:22.403Z,65.47
2022-12-23T11:36:01.883Z,63.67
2022-12-23T11:38:31.853Z,69.13
2022-12-23T11:41:00.583Z,67.60
2022-12-23T11:43:29.437Z,74.37
2022-12-23T11:46:19.016Z,61.93
2022-12-23T11:48:54.412Z,66.77
2022-12-23T11:51:27.769Z,67.57
2022-12-23T11:54:02.731Z,69.40
2022-12-23T11:56:37.414Z,69.43
2022-12-23T11:59:08.961Z,70.63
2022-12-23T12:01:39.400Z,73.30
2022-12-23T12:04:10.275Z,68.27
2022-12-23T12:06:47.365Z,64.63
2022-12-23T12:09:21.457Z,65.53
2022-12-23T12:11:52.735Z,70.27
2022-12-23T12:14:25.851Z,65.27
2022-12-23T12:17:01.859Z,82.33
2022-12-23T12:19:36.727Z,71.17
2022-12-23T12:22:15.119Z,69.43
2022-12-23T12:24:49.784Z,68.27
2022-12-23T12:27:19.174Z,72.63
2022-12-23T12:29:51.908Z,66.87
2022-12-23T12:32:27.167Z,77.67
2022-12-23T12:35:00.191Z,71.87
2022-12-23T12:37:39.261Z,75.93
2022-12-23T12:40:19.256Z,66.07
2022-12-23T12:42:54.333Z,72.43
2022-12-23T12:45:25.308Z,69.37
2022-12-23T12:48:16.414Z,68.63
2022-12-23T12:50:53.927Z,70.97
2022-12-23T12:53:24.732Z,67.00
2022-12-23T12:55:59.547Z,69.43
2022-12-23T12:58:27.992Z,67.27
2022-12-23T13:01:14.273Z,70.03
2022-12-23T13:04:16.347Z,76.00
2022-12-23T13:06:53.973Z,75.70
2022-12-23T13:09:32.832Z,73.80
2022-12-23T13:12:15.033Z,66.20
2022-12-23T13:14:56.483Z,69.40
2022-12-23T13:17:29.907Z,65.10
2022-12-23T13:20:09.443Z,79.47
2022-12-23T13:22:38.683Z,71.83
2022-12-23T13:25:15.152Z,74.43
2022-12-23T13:27:54.311Z,82.93
2022-12-23T13:30:24.344Z,79.37
2022-12-23T13:33:12.344Z,77.57
2022-12-23T13:36:04.967Z,75.03
2022-12-23T13:39:06.836Z,89.50
2022-12-23T13:41:39.236Z,79.60
2022-12-23T13:44:11.157Z,78.23
2022-12-23T13:46:48.038Z,69.93
2022-12-23T13:49:23.605Z,78.70
2022-12-23T13:51:56.206Z,77.77
2022-12-23T13:54:37.251Z,72.50
2022-12-23T13:57:14.511Z,76.50
2022-12-23T14:00:02.989Z,75.40
2022-12-23T14:02:52.225Z,77.47
2022-12-23T14:05:33.372Z,81.57
2022-12-23T14:08:03.387Z,83.53
2022-12-23T14:10:32.600Z,78.20
2022-12-23T14:13:04.135Z,82.97
2022-12-23T14:16:11.732Z,79.07
2022-12-23T14:19:11.278Z,80.47
2022-12-23T14:21:48.610Z,88.43
2022-12-23T14:24:46.433Z,92.87
2022-12-23T14:27:33.268Z,88.87
2022-12-23T14:30:12.465Z,80.37
2022-12-23T14:32:47.691Z,75.50
2022-12-23T14:36:07.153Z,77.23
2022-12-23T14:38:36.773Z,85.50
2022-12-23T14:41:26.357Z,82.20
2022-12-23T14:43:57.293Z,89.70
2022-12-23T14:46:59.329Z,83.23
2022-12-23T14:49:41.131Z,85.80
2022-12-23T14:52:44.430Z,91.07
2022-12-23T14:55:46.075Z,82.60
2022-12-23T14:58:35.427Z,85.30
2022-12-23T15:01:08.791Z,90.23
2022-12-23T15:03:43.450Z,79.13
2022-12-23T15:06:16.000Z,83.67
2022-12-23T15:08:46.264Z,86.37
2022-12-23T15:11:24.015Z,86.87
2022-12-23T15:13:54.867Z,86.97
2022-12-23T15:16:31.735Z,80.97
2022-12-23T15:19:03.352Z,86.93
2022-12-23T15:21:34.037Z,79.17
2022-12-23T15:24:02.194Z,82.63
2022-12-23T15:26:33.578Z,88.57
2022-12-23T15:29:02.166Z,79.13
2022-12-23T15:31:34.084Z,83.17
2022-12-23T15:34:11.698Z,78.03
2022-12-23T15:36:44.939Z,75.00
2022-12-23T15:39:21.085Z,74.63
2022-12-23T15:41:50.708Z,78.03
2022-12-23T15:44:21.787Z,76.67
2022-12-23T15:46:50.586Z,79.23
2022-12-23T15:49:20.352Z,83.20
2022-12-23T15:52:12.570Z,76.03
2022-12-23T15:54:45.825Z,70.60
2022-12-23T15:57:19.448Z,74.17
2022-12-23T15:59:47.792Z,68.27
2022-12-23T16:05:10.401Z,65.00
2022-12-23T16:07:41.343Z,61.73
2022-12-23T16:10:15.776Z,56.43
2022-12-23T16:12:45.766Z,57.40
2022-12-23T16:15:27.577Z,60.43
2022-12-23T16:18:14.254Z,56.40
2022-12-23T16:20:44.585Z,52.10
2022-12-23T16:23:14.215Z,56.53
2022-12-23T16:25:50.375Z,55.90
2022-12-23T16:28:24.148Z,56.53
2022-12-23T16:30:54.809Z,57.07
2022-12-23T16:33:32.124Z,53.53
2022-12-23T16:36:17.110Z,56.97
2022-12-23T16:38:45.912Z,54.73
2022-12-23T16:41:14.368Z,56.63
2022-12-23T16:43:51.614Z,61.17
2022-12-23T16:46:22.860Z,56.37
2022-12-23T16:48:52.893Z,67.03
2022-12-23T16:51:24.100Z,70.00
2022-12-23T16:53:55.117Z,70.70
2022-12-23T16:56:25.728Z,84.97
2022-12-23T16:58:55.726Z,90.77
2022-12-23T17:01:25.497Z,88.80
2022-12-23T17:03:55.857Z,84.13
2022-12-23T17:06:24.825Z,87.77
2022-12-23T17:08:54.241Z,110.20
2022-12-23T17:11:26.683Z,112.47
2022-12-23T17:14:03.874Z,112.13
2022-12-23T17:16:34.463Z,111.40
2022-12-23T17:19:02.935Z,88.43
2022-12-23T17:21:33.470Z,85.07
2022-12-23T17:24:06.467Z,87.87
2022-12-23T17:26:35.151Z,86.50
2022-12-23T17:29:05.729Z,100.77
2022-12-23T17:31:35.353Z,103.67
2022-12-23T17:34:03.622Z,102.90
2022-12-23T17:36:32.080Z,71.07
2022-12-23T17:39:00.494Z,106.37
2022-12-23T17:41:30.971Z,95.30
2022-12-23T17:43:59.675Z,89.60
2022-12-23T17:46:30.662Z,72.00
2022-12-23T17:48:59.338Z,89.47
2022-12-23T17:51:28.448Z,81.53
2022-12-23T17:53:58.258Z,76.07
2022-12-23T17:56:28.932Z,77.03
2022-12-23T17:58:57.440Z,79.47
2022-12-23T18:01:27.464Z,85.53
2022-12-23T18:03:58.919Z,91.30
2022-12-23T18:06:29.241Z,104.60
2022-12-23T18:08:57.883Z,92.20
2022-12-23T18:11:33.654Z,106.13
2022-12-23T18:14:03.609Z,108.17
2022-12-23T18:16:32.105Z,97.63
2022-12-23T18:19:01.643Z,102.17
2022-12-23T18:21:30.570Z,113.70
2022-12-23T18:24:00.759Z,114.50
2022-12-23T18:26:29.179Z,136.67
2022-12-23T18:28:57.347Z,123.93
2022-12-23T18:31:27.310Z,117.30
2022-12-23T18:33:56.003Z,114.53
2022-12-23T18:36:28.329Z,113.60
2022-12-23T18:38:57.978Z,103.63
2022-12-23T18:41:27.428Z,94.93
2022-12-23T18:43:55.899Z,91.37
2022-12-23T18:46:24.790Z,86.87
2022-12-23T18:48:53.900Z,97.07
2022-12-23T18:51:23.351Z,102.17
2022-12-23T18:53:52.922Z,87.03
2022-12-23T18:56:22.670Z,92.03
2022-12-23T18:58:51.250Z,93.47
2022-12-23T19:01:20.068Z,86.57
2022-12-23T19:03:48.444Z,95.00
2022-12-23T19:06:17.044Z,85.17
2022-12-23T19:08:45.582Z,94.87
2022-12-23T19:11:17.741Z,106.57
2022-12-23T19:13:46.630Z,108.47
2022-12-23T19:16:16.250Z,99.60
2022-12-23T19:18:44.933Z,90.60
2022-12-23T19:21:13.341Z,98.03
2022-12-23T19:23:42.447Z,97.40
2022-12-23T19:26:11.557Z,90.13
2022-12-23T19:28:42.631Z,83.70
2022-12-23T19:31:12.651Z,92.00
2022-12-23T19:33:41.556Z,95.47
2022-12-23T19:36:10.978Z,89.33
2022-12-23T19:38:39.528Z,101.07
2022-12-23T19:41:08.280Z,86.00
2022-12-23T19:43:36.908Z,95.93
2022-12-23T19:46:08.659Z,86.53
2022-12-23T19:48:37.775Z,115.17
2022-12-23T19:51:09.837Z,98.90
2022-12-23T19:53:38.346Z,108.40
2022-12-23T19:56:15.493Z,87.77
2022-12-23T19:58:44.896Z,86.37
2022-12-23T20:01:16.393Z,83.70
2022-12-23T20:03:45.891Z,88.27
2022-12-23T20:06:19.384Z,82.20
2022-12-23T20:08:48.687Z,78.43
2022-12-23T20:11:21.142Z,83.93
2022-12-23T20:13:53.081Z,77.23
2022-12-23T20:16:23.200Z,80.87
2022-12-23T20:18:51.840Z,85.50
2022-12-23T20:21:20.680Z,86.33
2022-12-23T20:23:49.228Z,79.70
2022-12-23T20:26:18.987Z,88.13
2022-12-23T20:28:47.572Z,97.17
2022-12-23T20:31:18.918Z,88.20
2022-12-23T20:33:49.333Z,89.23
2022-12-23T20:36:19.595Z,89.77
2022-12-23T20:38:49.228Z,99.53
2022-12-23T20:41:19.817Z,84.80
2022-12-23T20:44:02.760Z,82.67
2022-12-23T20:46:36.759Z,100.47
2022-12-23T20:49:06.343Z,101.67
2022-12-23T20:51:34.767Z,97.00
2022-12-23T20:54:03.133Z,96.07
2022-12-23T20:56:31.869Z,94.50
2022-12-23T20:59:02.297Z,101.20
2022-12-23T21:01:33.012Z,115.60
2022-12-23T21:04:03.174Z,108.20
2022-12-23T21:06:33.962Z,100.53
2022-12-23T21:09:04.952Z,116.47
2022-12-23T21:11:34.875Z,116.83
2022-12-23T21:14:06.893Z,121.07
2022-12-23T21:16:36.619Z,123.17
2022-12-23T21:19:06.655Z,121.20
2022-12-23T21:21:37.379Z,116.97
2022-12-23T21:24:05.937Z,134.37
2022-12-23T21:26:35.753Z,138.57
2022-12-23T21:29:05.531Z,140.70
2022-12-23T21:31:35.403Z,134.00
2022-12-23T21:34:03.975Z,129.27
2022-12-23T21:36:34.224Z,129.87
2022-12-23T21:39:04.515Z,132.87
2022-12-23T21:41:36.354Z,133.83
2022-12-23T21:44:05.123Z,133.77
2022-12-23T21:46:33.316Z,145.93
2022-12-23T21:49:02.684Z,138.00
2022-12-23T21:51:39.603Z,130.20
2022-12-23T21:54:11.351Z,134.83
2022-12-23T21:56:40.755Z,130.50
2022-12-23T21:59:12.488Z,128.13
2022-12-23T22:01:41.385Z,128.27
2022-12-23T22:04:09.641Z,128.43
2022-12-23T22:06:39.852Z,116.03
2022-12-23T22:09:11.905Z,112.47
2022-12-23T22:11:40.549Z,115.70
2022-12-23T22:14:11.674Z,107.07
2022-12-23T22:16:39.918Z,112.57
2022-12-23T22:19:09.279Z,109.60
2022-12-23T22:21:39.627Z,114.87
2022-12-23T22:24:10.353Z,114.77
2022-12-23T22:26:40.140Z,116.53
2022-12-23T22:29:08.586Z,112.70
2022-12-23T22:31:40.624Z,113.23
2022-12-23T22:34:11.979Z,122.77
2022-12-23T22:36:40.419Z,113.87
2022-12-23T22:39:10.795Z,116.23
2022-12-23T22:41:42.508Z,120.37
2022-12-23T22:44:13.184Z,117.87
2022-12-23T22:46:41.928Z,115.07
2022-12-23T22:49:12.558Z,133.33
2022-12-23T22:51:41.678Z,122.63
2022-12-23T22:54:10.426Z,130.90
2022-12-23T22:56:38.760Z,127.83
2022-12-23T22:59:08.539Z,118.17
2022-12-23T23:01:38.659Z,117.40
2022-12-23T23:04:07.954Z,126.97
2022-12-23T23:06:38.575Z,155.10
2022-12-23T23:09:07.892Z,170.00
2022-12-23T23:11:36.537Z,129.37
2022-12-23T23:14:05.019Z,130.93
2022-12-23T23:16:34.735Z,167.53
2022-12-23T23:19:03.318Z,108.33
2022-12-23T23:21:31.874Z,149.07
2022-12-23T23:24:00.281Z,120.33
2022-12-23T23:26:28.700Z,163.40
2022-12-23T23:28:57.597Z,116.83
2022-12-23T23:31:43.303Z,148.20
2022-12-23T23:34:14.040Z,185.60
2022-12-23T23:36:42.649Z,192.60
2022-12-23T23:39:13.278Z,158.03
2022-12-23T23:41:42.066Z,103.93
2022-12-23T23:44:10.682Z,142.87
2022-12-23T23:46:39.135Z,136.67
2022-12-23T23:49:07.582Z,102.90
2022-12-23T23:51:37.377Z,129.57
2022-12-23T23:54:05.677Z,109.13
2022-12-23T23:56:38.293Z,101.87
2022-12-23T23:59:07.749Z,102.57
